Time,TemperatureF,DewpointF,PressureIn,WindDirection,WindDirectionDegrees,WindSpeedMPH,WindSpeedGustMPH,Humidity,HourlyPrecipIn,Conditions,Clouds,dailyrainin,SoftwareType,DateUTC
2013-01-06 00:14:00,34.7,27.6,30.01,West,270,3.2,-999.0,75,-99.99,,,0.00,Acu-Link.com,2013-01-06 05:14:00,
2013-01-06 00:30:00,34.5,27.4,30.01,WNW,292,6.8,-999.0,75,-99.99,,,0.00,Acu-Link.com,2013-01-06 05:30:00,
2013-01-06 00:45:00,34.3,27.9,30.00,West,270,6.8,-999.0,77,-99.99,,,0.00,Acu-Link.com,2013-01-06 05:45:00,
2013-01-06 01:01:00,34.3,27.5,30.00,West,270,8.3,-999.0,76,-99.99,,,0.00,Acu-Link.com,2013-01-06 06:01:00,
2013-01-06 01:16:00,34.5,28.0,29.99,WNW,292,5.3,-999.0,77,-99.99,,,0.00,Acu-Link.com,2013-01-06 06:16:00,
2013-01-06 01:31:00,34.7,27.9,29.98,West,270,4.2,-999.0,76,-99.99,,,0.00,Acu-Link.com,2013-01-06 06:31:00,
2013-01-06 02:02:00,34.5,28.4,29.98,West,270,8.3,-999.0,78,-99.99,,,0.01,Acu-Link.com,2013-01-06 07:02:00,
2013-01-06 02:17:00,34.3,28.2,29.97,West,270,7.8,-999.0,78,-99.99,,,0.01,Acu-Link.com,2013-01-06 07:17:00,
2013-01-06 02:32:00,34.3,28.2,29.98,West,270,7.3,-999.0,78,-99.99,,,0.01,Acu-Link.com,2013-01-06 07:32:00,
2013-01-06 02:47:00,34.9,28.1,29.98,West,270,6.8,-999.0,76,-99.99,,,0.01,Acu-Link.com,2013-01-06 07:47:00,
2013-01-06 03:03:00,34.7,27.9,29.97,West,270,5.3,-999.0,76,-99.99,,,0.01,Acu-Link.com,2013-01-06 08:03:00,
2013-01-06 03:18:00,34.5,28.7,29.96,West,270,7.3,-999.0,79,-99.99,,,0.01,Acu-Link.com,2013-01-06 08:18:00,
2013-01-06 03:34:00,34.5,29.3,29.96,WSW,247,10.4,-999.0,81,-99.99,,,0.01,Acu-Link.com,2013-01-06 08:34:00,
2013-01-06 03:49:00,34.3,29.4,29.96,West,270,9.4,-999.0,82,-99.99,,,0.01,Acu-Link.com,2013-01-06 08:49:00,
2013-01-06 04:09:00,34.2,29.6,29.97,WSW,247,9.9,-999.0,83,-99.99,,,0.01,Acu-Link.com,2013-01-06 09:09:00,
2013-01-06 04:24:00,33.8,29.8,29.95,WNW,292,9.9,-999.0,85,-99.99,,,0.01,Acu-Link.com,2013-01-06 09:24:00,
2013-01-06 04:39:00,33.3,29.6,29.95,WNW,292,5.3,-999.0,86,-99.99,,,0.01,Acu-Link.com,2013-01-06 09:39:00,
2013-01-06 04:54:00,33.1,29.7,29.94,West,270,7.3,-999.0,87,-99.99,,,0.01,Acu-Link.com,2013-01-06 09:54:00,
2013-01-06 05:09:00,32.5,29.3,29.94,WNW,292,5.3,-999.0,88,-99.99,,,0.01,Acu-Link.com,2013-01-06 10:09:00,
2013-01-06 05:25:00,32.0,29.1,29.94,WNW,292,2.7,-999.0,89,-99.99,,,0.01,Acu-Link.com,2013-01-06 10:25:00,
2013-01-06 05:40:00,31.8,29.2,29.94,West,270,7.8,-999.0,90,-99.99,,,0.01,Acu-Link.com,2013-01-06 10:40:00,
2013-01-06 05:55:00,31.8,29.2,29.93,West,270,6.8,-999.0,90,-99.99,,,0.01,Acu-Link.com,2013-01-06 10:55:00,
2013-01-06 06:11:00,30.9,28.6,29.93,WNW,292,3.7,-999.0,91,-99.99,,,0.01,Acu-Link.com,2013-01-06 11:11:00,
2013-01-06 06:26:00,30.4,28.4,29.94,West,270,3.2,-999.0,92,-99.99,,,0.01,Acu-Link.com,2013-01-06 11:26:00,
2013-01-06 06:41:00,30.0,28.2,29.94,SW,225,3.7,-999.0,93,-99.99,,,0.01,Acu-Link.com,2013-01-06 11:41:00,
2013-01-06 06:56:00,29.3,27.5,29.94,WSW,247,1.7,-999.0,93,-99.99,,,0.01,Acu-Link.com,2013-01-06 11:56:00,
2013-01-06 07:11:00,30.4,28.6,29.95,WNW,292,4.7,-999.0,93,-99.99,,,0.01,Acu-Link.com,2013-01-06 12:11:00,
2013-01-06 07:27:00,32.2,29.3,29.95,WNW,292,6.8,-999.0,89,-99.99,,,0.01,Acu-Link.com,2013-01-06 12:27:00,
2013-01-06 07:42:00,32.0,28.9,29.95,NNE,22,3.7,-999.0,88,-99.99,,,0.01,Acu-Link.com,2013-01-06 12:42:00,
2013-01-06 07:57:00,32.5,29.1,29.96,West,270,4.2,-999.0,87,-99.99,,,0.01,Acu-Link.com,2013-01-06 12:57:00,
2013-01-06 08:13:00,32.0,28.9,29.95,NE,45,3.2,-999.0,88,-99.99,,,0.01,Acu-Link.com,2013-01-06 13:13:00,
2013-01-06 08:28:00,34.0,29.7,29.95,West,270,2.2,-999.0,84,-99.99,,,0.01,Acu-Link.com,2013-01-06 13:28:00,
2013-01-06 08:43:00,35.6,30.1,29.96,WNW,292,7.8,-999.0,80,-99.99,,,0.01,Acu-Link.com,2013-01-06 13:43:00,
2013-01-06 08:59:00,36.0,30.7,29.95,WNW,292,5.8,-999.0,81,-99.99,,,0.01,Acu-Link.com,2013-01-06 13:59:00,
2013-01-06 09:14:00,37.8,31.6,29.96,WNW,292,5.3,-999.0,78,-99.99,,,0.01,Acu-Link.com,2013-01-06 14:14:00,
2013-01-06 09:30:00,36.9,31.0,29.96,West,270,3.2,-999.0,79,-99.99,,,0.01,Acu-Link.com,2013-01-06 14:30:00,
2013-01-06 09:45:00,36.5,30.9,29.96,WNW,292,8.3,-999.0,80,-99.99,,,0.01,Acu-Link.com,2013-01-06 14:45:00,
2013-01-06 10:00:00,36.9,31.3,29.96,NW,315,6.8,-999.0,80,-99.99,,,0.01,Acu-Link.com,2013-01-06 15:00:00,
2013-01-06 10:15:00,37.2,31.3,29.96,West,270,5.8,-999.0,79,-99.99,,,0.01,Acu-Link.com,2013-01-06 15:15:00,
2013-01-06 10:30:00,37.4,31.2,29.97,West,270,6.8,-999.0,78,-99.99,,,0.01,Acu-Link.com,2013-01-06 15:30:00,
2013-01-06 10:45:00,37.9,31.3,29.96,NW,315,11.9,-999.0,77,-99.99,,,0.01,Acu-Link.com,2013-01-06 15:45:00,
2013-01-06 11:01:00,37.4,31.2,29.96,WNW,292,6.8,-999.0,78,-99.99,,,0.01,Acu-Link.com,2013-01-06 16:01:00,
2013-01-06 11:16:00,37.2,31.3,29.96,WNW,292,8.3,-999.0,79,-99.99,,,0.01,Acu-Link.com,2013-01-06 16:16:00,
2013-01-06 11:31:00,37.8,32.2,29.95,WSW,247,8.3,-999.0,80,-99.99,,,0.01,Acu-Link.com,2013-01-06 16:31:00,
2013-01-06 11:47:00,38.8,32.9,29.94,NNE,22,0.0,-999.0,79,-99.99,,,0.02,Acu-Link.com,2013-01-06 16:47:00,
2013-01-06 12:02:00,40.8,34.2,29.93,NNE,22,0.0,-999.0,77,-99.99,,,0.02,Acu-Link.com,2013-01-06 17:02:00,
2013-01-06 12:17:00,43.2,35.1,29.92,North,0,0.0,-999.0,73,-99.99,,,0.02,Acu-Link.com,2013-01-06 17:17:00,
2013-01-06 12:33:00,42.1,33.4,29.90,NW,315,0.0,-999.0,71,-99.99,,,0.02,Acu-Link.com,2013-01-06 17:33:00,
2013-01-06 12:48:00,41.5,32.8,29.90,NW,315,0.0,-999.0,71,-99.99,,,0.02,Acu-Link.com,2013-01-06 17:48:00,
2013-01-06 13:03:00,43.2,33.7,29.89,NW,315,0.0,-999.0,69,-99.99,,,0.02,Acu-Link.com,2013-01-06 18:03:00,
2013-01-06 13:18:00,43.3,33.8,29.89,NW,315,0.0,-999.0,69,-99.99,,,0.02,Acu-Link.com,2013-01-06 18:18:00,
2013-01-06 13:34:00,44.2,33.9,29.88,NW,315,0.0,-999.0,67,-99.99,,,0.02,Acu-Link.com,2013-01-06 18:34:00,
2013-01-06 13:49:00,45.3,34.2,29.87,NNE,22,0.0,-999.0,65,-99.99,,,0.02,Acu-Link.com,2013-01-06 18:49:00,
2013-01-06 14:04:00,44.4,34.1,29.87,NW,315,0.0,-999.0,67,-99.99,,,0.02,Acu-Link.com,2013-01-06 19:04:00,
2013-01-06 14:20:00,44.2,33.9,29.87,NW,315,0.0,-999.0,67,-99.99,,,0.02,Acu-Link.com,2013-01-06 19:20:00,
2013-01-06 14:35:00,47.1,35.2,29.86,NNE,22,0.0,-999.0,63,-99.99,,,0.02,Acu-Link.com,2013-01-06 19:35:00,
2013-01-06 15:06:00,44.8,33.0,29.85,NNE,22,0.0,-999.0,63,-99.99,,,0.02,Acu-Link.com,2013-01-06 20:06:00,
2013-01-06 15:21:00,43.2,33.0,29.86,NNE,22,0.0,-999.0,67,-99.99,,,0.02,Acu-Link.com,2013-01-06 20:21:00,
2013-01-06 15:36:00,42.8,33.0,29.87,NNE,22,0.0,-999.0,68,-99.99,,,0.02,Acu-Link.com,2013-01-06 20:36:00,
2013-01-06 15:51:00,41.0,32.3,29.88,NNE,22,0.0,-999.0,71,-99.99,,,0.02,Acu-Link.com,2013-01-06 20:51:00,
2013-01-06 16:06:00,40.6,31.9,29.88,NNE,22,0.0,-999.0,71,-99.99,,,0.02,Acu-Link.com,2013-01-06 21:06:00,
2013-01-06 16:22:00,39.6,31.7,29.88,NNE,22,0.0,-999.0,73,-99.99,,,0.02,Acu-Link.com,2013-01-06 21:22:00,
2013-01-06 16:37:00,38.7,31.5,29.88,NNE,22,0.0,-999.0,75,-99.99,,,0.02,Acu-Link.com,2013-01-06 21:37:00,
2013-01-06 16:52:00,38.1,31.2,29.88,NNE,22,0.0,-999.0,76,-99.99,,,0.02,Acu-Link.com,2013-01-06 21:52:00,
2013-01-06 17:08:00,36.5,30.0,29.88,NNE,22,0.0,-999.0,77,-99.99,,,0.02,Acu-Link.com,2013-01-06 22:08:00,
2013-01-06 17:23:00,34.7,28.9,29.88,NNE,22,0.0,-999.0,79,-99.99,,,0.02,Acu-Link.com,2013-01-06 22:23:00,
2013-01-06 17:38:00,34.2,29.0,29.90,NNE,22,0.0,-999.0,81,-99.99,,,0.02,Acu-Link.com,2013-01-06 22:38:00,
2013-01-06 17:54:00,33.6,28.4,29.91,NNE,22,0.0,-999.0,81,-99.99,,,0.02,Acu-Link.com,2013-01-06 22:54:00,
2013-01-06 18:09:00,33.1,28.2,29.91,NNE,22,0.0,-999.0,82,-99.99,,,0.02,Acu-Link.com,2013-01-06 23:09:00,
2013-01-06 18:24:00,33.6,28.4,29.92,NNE,22,0.0,-999.0,81,-99.99,,,0.02,Acu-Link.com,2013-01-06 23:24:00,
2013-01-06 18:39:00,34.0,28.8,29.92,NNE,22,0.0,-999.0,81,-99.99,,,0.02,Acu-Link.com,2013-01-06 23:39:00,
2013-01-06 18:54:00,34.2,29.3,29.93,NNE,22,0.0,-999.0,82,-99.99,,,0.02,Acu-Link.com,2013-01-06 23:54:00,
2013-01-06 19:10:00,34.0,29.1,29.92,NNE,22,0.0,-999.0,82,-99.99,,,0.02,Acu-Link.com,2013-01-07 00:10:00,
2013-01-06 19:25:00,34.2,29.3,29.93,NNE,22,0.0,-999.0,82,-99.99,,,0.02,Acu-Link.com,2013-01-07 00:25:00,
2013-01-06 19:40:00,34.2,29.3,29.93,NNE,22,0.0,-999.0,82,-99.99,,,0.02,Acu-Link.com,2013-01-07 00:40:00,
2013-01-06 19:56:00,34.0,29.1,29.93,NNE,22,0.0,-999.0,82,-99.99,,,0.02,Acu-Link.com,2013-01-07 00:56:00,
2013-01-06 20:11:00,34.3,29.4,29.93,NNE,22,0.0,-999.0,82,-99.99,,,0.02,Acu-Link.com,2013-01-07 01:11:00,
2013-01-06 20:26:00,33.3,28.7,29.93,NNE,22,0.0,-999.0,83,-99.99,,,0.02,Acu-Link.com,2013-01-07 01:26:00,
2013-01-06 20:41:00,32.7,28.7,29.93,NNE,22,0.0,-999.0,85,-99.99,,,0.02,Acu-Link.com,2013-01-07 01:41:00,
2013-01-06 20:57:00,31.6,28.2,29.93,NNE,22,0.0,-999.0,87,-99.99,,,0.02,Acu-Link.com,2013-01-07 01:57:00,
2013-01-06 21:12:00,32.0,28.6,29.93,NNE,22,0.0,-999.0,87,-99.99,,,0.02,Acu-Link.com,2013-01-07 02:12:00,
2013-01-06 21:27:00,32.9,29.2,29.93,NNE,22,0.0,-999.0,86,-99.99,,,0.02,Acu-Link.com,2013-01-07 02:27:00,
2013-01-06 21:43:00,34.2,29.3,29.94,NNE,22,0.0,-999.0,82,-99.99,,,0.02,Acu-Link.com,2013-01-07 02:43:00,
2013-01-06 21:58:00,34.3,29.4,29.94,NNE,22,0.0,-999.0,82,-99.99,,,0.02,Acu-Link.com,2013-01-07 02:58:00,
2013-01-06 22:13:00,34.7,29.2,29.95,NNE,22,0.0,-999.0,80,-99.99,,,0.02,Acu-Link.com,2013-01-07 03:13:00,
2013-01-06 22:29:00,35.2,29.0,29.95,NNE,22,0.0,-999.0,78,-99.99,,,0.02,Acu-Link.com,2013-01-07 03:29:00,
2013-01-06 22:44:00,35.6,28.8,29.95,NNE,22,0.0,-999.0,76,-99.99,,,0.02,Acu-Link.com,2013-01-07 03:44:00,
2013-01-06 22:59:00,36.0,28.9,29.96,NNE,22,0.0,-999.0,75,-99.99,,,0.02,Acu-Link.com,2013-01-07 03:59:00,
2013-01-06 23:14:00,36.0,28.9,29.96,NNE,22,0.0,-999.0,75,-99.99,,,0.02,Acu-Link.com,2013-01-07 04:14:00,
2013-01-06 23:30:00,35.8,28.7,29.96,NNE,22,0.0,-999.0,75,-99.99,,,0.02,Acu-Link.com,2013-01-07 04:30:00,
2013-01-06 23:45:00,35.2,28.4,29.97,NNE,22,0.0,-999.0,76,-99.99,,,0.02,Acu-Link.com,2013-01-07 04:45:00,